createdAt,value
2022-09-15T00:01:55.013Z,67.02
2022-09-15T00:04:21.517Z,66.48
2022-09-15T00:06:47.978Z,66.64
2022-09-15T00:09:14.390Z,67.09
2022-09-15T00:11:40.890Z,67.08
2022-09-15T00:14:08.501Z,66.68
2022-09-15T00:16:35.213Z,66.88
2022-09-15T00:19:02.740Z,67.08
2022-09-15T00:21:32.439Z,67.06
2022-09-15T00:24:00.089Z,67.54
2022-09-15T00:26:28.596Z,67.00
2022-09-15T00:28:57.038Z,67.12
2022-09-15T00:31:25.607Z,67.89
2022-09-15T00:33:54.874Z,67.73
2022-09-15T00:36:22.869Z,67.40
2022-09-15T00:38:49.445Z,67.44
2022-09-15T00:41:18.721Z,67.80
2022-09-15T00:43:53.558Z,67.38
2022-09-15T00:46:23.569Z,68.12
2022-09-15T00:48:59.327Z,68.63
2022-09-15T00:51:32.806Z,68.63
2022-09-15T00:54:01.657Z,68.32
2022-09-15T00:56:29.836Z,68.65
2022-09-15T00:59:01.948Z,68.76
2022-09-15T01:01:31.160Z,68.55
2022-09-15T01:03:58.396Z,68.49
2022-09-15T01:06:41.155Z,69.16
2022-09-15T01:09:13.977Z,68.82
2022-09-15T01:11:41.153Z,68.63
2022-09-15T01:14:07.942Z,68.38
2022-09-15T01:16:59.291Z,68.50
2022-09-15T01:19:43.714Z,68.83
2022-09-15T01:22:31.764Z,68.22
2022-09-15T01:25:09.064Z,68.71
2022-09-15T01:28:07.123Z,68.40
2022-09-15T01:30:56.535Z,68.51
2022-09-15T01:33:37.124Z,67.95
2022-09-15T01:36:37.666Z,67.88
2022-09-15T01:39:14.118Z,67.49
2022-09-15T01:41:45.207Z,67.69
2022-09-15T01:44:22.069Z,68.00
2022-09-15T01:46:54.698Z,67.97
2022-09-15T01:49:27.906Z,68.11
2022-09-15T01:51:54.860Z,68.11
2022-09-15T01:54:29.871Z,68.27
2022-09-15T01:56:57.571Z,68.47
2022-09-15T01:59:24.419Z,68.28
2022-09-15T02:02:13.732Z,68.18
2022-09-15T02:04:48.203Z,68.08
2022-09-15T02:07:20.694Z,68.18
2022-09-15T02:09:53.587Z,67.64
2022-09-15T02:12:33.453Z,68.13
2022-09-15T02:15:05.283Z,68.23
2022-09-15T02:17:36.014Z,68.01
2022-09-15T02:20:13.552Z,67.91
2022-09-15T02:22:43.164Z,68.17
2022-09-15T02:25:20.115Z,68.15
2022-09-15T02:27:51.129Z,67.89
2022-09-15T02:30:19.181Z,67.69
2022-09-15T02:33:00.139Z,67.69
2022-09-15T02:35:29.137Z,67.82
2022-09-15T02:37:56.459Z,67.63
2022-09-15T02:40:23.158Z,68.04
2022-09-15T02:42:55.000Z,67.91
2022-09-15T02:45:22.134Z,68.17
2022-09-15T02:47:48.709Z,67.89
2022-09-15T02:50:15.230Z,68.12
2022-09-15T02:52:41.695Z,67.95
2022-09-15T02:55:08.884Z,67.75
2022-09-15T02:57:35.423Z,67.80
2022-09-15T03:00:03.301Z,67.94
2022-09-15T03:02:29.857Z,67.99
2022-09-15T03:04:56.364Z,67.84
2022-09-15T03:07:22.818Z,68.32
2022-09-15T03:09:49.326Z,68.23
2022-09-15T03:12:15.772Z,68.28
2022-09-15T03:14:42.218Z,68.08
2022-09-15T03:17:08.669Z,68.17
2022-09-15T03:19:35.300Z,68.46
2022-09-15T03:22:01.730Z,68.64
2022-09-15T03:24:28.247Z,68.26
2022-09-15T03:26:54.693Z,67.67
2022-09-15T03:29:21.140Z,67.77
2022-09-15T03:31:47.721Z,67.78
2022-09-15T03:34:14.167Z,67.75
2022-09-15T03:36:40.629Z,67.70
2022-09-15T03:39:07.097Z,67.97
2022-09-15T03:41:33.589Z,67.54
2022-09-15T03:44:00.024Z,67.72
2022-09-15T03:46:26.504Z,67.66
2022-09-15T03:48:52.979Z,67.91
2022-09-15T03:51:19.444Z,67.69
2022-09-15T03:53:46.260Z,67.87
2022-09-15T03:56:25.694Z,67.69
2022-09-15T03:58:53.035Z,68.23
2022-09-15T04:01:20.568Z,68.00
2022-09-15T04:03:50.892Z,67.98
2022-09-15T04:06:19.560Z,67.96
2022-09-15T04:08:46.368Z,67.88
2022-09-15T04:11:13.440Z,68.07
2022-09-15T04:13:40.989Z,68.57
2022-09-15T04:16:19.015Z,68.40
2022-09-15T04:18:46.025Z,68.15
2022-09-15T04:21:14.902Z,68.23
2022-09-15T04:23:42.976Z,67.95
2022-09-15T04:26:24.966Z,68.34
2022-09-15T04:28:51.510Z,67.92
2022-09-15T04:31:18.597Z,67.82
2022-09-15T04:33:46.321Z,68.38
2022-09-15T04:36:18.783Z,67.92
2022-09-15T04:38:45.833Z,68.30
2022-09-15T04:41:13.573Z,68.04
2022-09-15T04:43:41.009Z,68.30
2022-09-15T04:46:07.509Z,68.47
2022-09-15T04:48:34.327Z,68.25
2022-09-15T04:51:02.822Z,68.35
2022-09-15T04:53:29.656Z,68.17
2022-09-15T04:56:14.079Z,68.18
2022-09-15T04:58:43.439Z,68.33
2022-09-15T05:01:16.169Z,68.52
2022-09-15T05:03:43.342Z,68.68
2022-09-15T05:06:12.572Z,68.79
2022-09-15T05:08:39.396Z,68.54
2022-09-15T05:11:11.438Z,68.71
2022-09-15T05:13:38.880Z,68.48
2022-09-15T05:16:14.229Z,69.07
2022-09-15T05:18:42.810Z,68.73
2022-09-15T05:21:11.131Z,69.13
2022-09-15T05:23:38.103Z,68.30
2022-09-15T05:26:11.396Z,68.79
2022-09-15T05:28:38.718Z,69.14
2022-09-15T05:31:20.221Z,68.98
2022-09-15T05:33:47.746Z,69.30
2022-09-15T05:36:14.380Z,68.64
2022-09-15T05:38:41.296Z,68.92
2022-09-15T05:41:12.648Z,69.03
2022-09-15T05:43:40.850Z,68.86
2022-09-15T05:46:07.848Z,69.22
2022-09-15T05:48:34.832Z,69.11
2022-09-15T05:51:01.409Z,69.26
2022-09-15T05:53:28.233Z,69.58
2022-09-15T05:55:59.135Z,69.21
2022-09-15T05:58:26.729Z,69.35
2022-09-15T06:00:54.506Z,69.41
2022-09-15T06:03:22.013Z,69.71
2022-09-15T06:05:48.615Z,69.63
2022-09-15T06:08:15.503Z,69.71
2022-09-15T06:10:44.422Z,69.39
2022-09-15T06:13:10.868Z,69.50
2022-09-15T06:15:37.328Z,69.49
2022-09-15T06:18:03.849Z,70.03
2022-09-15T06:20:30.330Z,69.96
2022-09-15T06:22:56.733Z,69.82
2022-09-15T06:25:23.166Z,69.51
2022-09-15T06:27:49.963Z,69.57
2022-09-15T06:30:16.710Z,69.55
2022-09-15T06:32:47.384Z,69.61
2022-09-15T06:35:14.575Z,69.97
2022-09-15T06:37:40.898Z,70.34
2022-09-15T06:40:07.632Z,70.26
2022-09-15T06:42:34.055Z,69.98
2022-09-15T06:45:00.417Z,69.41
2022-09-15T06:47:26.799Z,69.72
2022-09-15T06:49:53.189Z,69.87
2022-09-15T06:52:19.508Z,69.78
2022-09-15T06:54:45.872Z,69.96
2022-09-15T06:57:12.186Z,69.39
2022-09-15T06:59:38.536Z,69.24
2022-09-15T07:02:05.446Z,69.70
2022-09-15T07:04:33.424Z,69.60
2022-09-15T07:06:59.755Z,69.29
2022-09-15T07:09:26.127Z,69.50
2022-09-15T07:11:52.510Z,69.20
2022-09-15T07:14:18.860Z,69.20
2022-09-15T07:16:45.266Z,69.16
2022-09-15T07:19:11.616Z,69.12
2022-09-15T07:21:38.025Z,68.67
2022-09-15T07:24:07.282Z,69.04
2022-09-15T07:26:34.227Z,68.65
2022-09-15T07:29:01.753Z,68.86
2022-09-15T07:31:29.681Z,68.25
2022-09-15T07:33:56.083Z,68.30
2022-09-15T07:36:22.758Z,68.46
2022-09-15T07:38:49.565Z,68.21
2022-09-15T07:41:17.416Z,68.52
2022-09-15T07:43:47.668Z,68.13
2022-09-15T07:46:14.611Z,68.43
2022-09-15T07:48:43.431Z,68.10
2022-09-15T07:51:09.808Z,67.86
2022-09-15T07:53:36.140Z,67.98
2022-09-15T07:56:02.709Z,67.67
2022-09-15T07:58:29.093Z,67.59
2022-09-15T08:01:00.733Z,67.68
2022-09-15T08:03:27.169Z,67.43
2022-09-15T08:05:57.517Z,67.12
2022-09-15T08:08:23.887Z,67.03
2022-09-15T08:10:50.205Z,66.97
2022-09-15T08:13:16.560Z,66.46
2022-09-15T08:15:42.949Z,66.19
2022-09-15T08:18:09.348Z,66.36
2022-09-15T08:20:38.289Z,66.32
2022-09-15T08:23:04.630Z,65.73
2022-09-15T08:25:30.955Z,66.26
2022-09-15T08:27:57.275Z,65.22
2022-09-15T08:30:23.626Z,65.54
2022-09-15T08:32:50.286Z,65.24
2022-09-15T08:35:16.787Z,64.49
2022-09-15T08:37:43.142Z,64.78
2022-09-15T08:40:31.467Z,64.57
2022-09-15T08:42:59.848Z,63.88
2022-09-15T08:45:28.218Z,63.64
2022-09-15T08:47:57.373Z,63.75
2022-09-15T08:50:39.906Z,63.78
2022-09-15T08:53:07.861Z,63.51
2022-09-15T08:55:40.154Z,63.34
2022-09-15T08:58:11.620Z,63.04
2022-09-15T09:00:39.717Z,62.36
2022-09-15T09:03:12.091Z,62.13
2022-09-15T09:05:38.471Z,61.55
2022-09-15T09:08:19.780Z,62.09
2022-09-15T09:10:51.459Z,62.81
2022-09-15T09:13:20.929Z,61.82
2022-09-15T09:15:50.276Z,62.49
2022-09-15T09:18:22.661Z,62.48
2022-09-15T09:21:04.041Z,62.06
2022-09-15T09:23:32.629Z,62.08
2022-09-15T09:25:59.933Z,60.99
2022-09-15T09:28:26.236Z,60.09
2022-09-15T09:30:52.825Z,59.83
2022-09-15T09:33:26.328Z,60.56
2022-09-15T09:35:52.718Z,59.20
2022-09-15T09:38:28.467Z,60.93
2022-09-15T09:40:59.867Z,60.28
2022-09-15T09:43:29.315Z,59.74
2022-09-15T09:45:55.783Z,59.58
2022-09-15T09:48:23.946Z,59.75
2022-09-15T09:50:50.728Z,58.18
2022-09-15T09:53:27.722Z,57.78
2022-09-15T09:55:55.317Z,57.82
2022-09-15T09:58:23.240Z,58.38
2022-09-15T10:00:50.199Z,57.88
2022-09-15T10:03:16.505Z,57.95
2022-09-15T10:05:43.637Z,57.31
2022-09-15T10:08:17.253Z,57.53
2022-09-15T10:10:50.963Z,58.19
2022-09-15T10:13:17.476Z,57.58
2022-09-15T10:15:44.134Z,57.88
2022-09-15T10:18:25.358Z,57.92
2022-09-15T10:20:51.757Z,57.51
2022-09-15T10:23:18.071Z,57.35
2022-09-15T10:25:58.628Z,57.33
2022-09-15T10:28:26.549Z,57.13
2022-09-15T10:31:05.075Z,57.71
2022-09-15T10:33:31.414Z,57.05
2022-09-15T10:36:11.416Z,57.64
2022-09-15T10:38:37.740Z,56.65
2022-09-15T10:41:25.813Z,56.34
2022-09-15T10:44:09.609Z,56.49
2022-09-15T10:46:54.901Z,56.53
2022-09-15T10:49:27.304Z,56.14
2022-09-15T10:52:04.953Z,55.59
2022-09-15T10:54:40.243Z,55.34
2022-09-15T10:57:06.567Z,55.38
2022-09-15T10:59:45.262Z,54.86
2022-09-15T11:02:38.000Z,54.24
2022-09-15T11:05:13.533Z,54.25
2022-09-15T11:07:45.174Z,54.87
2022-09-15T11:10:14.344Z,54.94
2022-09-15T11:12:43.686Z,53.86
2022-09-15T11:15:11.351Z,53.49
2022-09-15T11:17:49.572Z,53.84
2022-09-15T11:20:15.941Z,54.43
2022-09-15T11:22:52.847Z,53.44
2022-09-15T11:25:21.482Z,53.71
2022-09-15T11:27:56.631Z,53.75
2022-09-15T11:30:22.976Z,53.22
2022-09-15T11:32:57.902Z,52.87
2022-09-15T11:35:27.680Z,53.22
2022-09-15T11:37:55.584Z,53.17
2022-09-15T11:40:30.135Z,53.20
2022-09-15T11:43:25.804Z,53.83
2022-09-15T11:45:54.838Z,53.75
2022-09-15T11:48:23.868Z,53.23
2022-09-15T11:50:52.859Z,53.14
2022-09-15T11:53:19.436Z,52.91
2022-09-15T11:55:55.007Z,53.16
2022-09-15T11:58:26.190Z,53.19
2022-09-15T12:00:55.586Z,53.63
2022-09-15T12:03:35.289Z,53.00
2022-09-15T12:06:21.919Z,51.12
2022-09-15T12:09:01.894Z,51.44
2022-09-15T12:11:30.799Z,51.54
2022-09-15T12:13:57.881Z,50.84
2022-09-15T12:16:25.069Z,50.61
2022-09-15T12:18:56.495Z,50.19
2022-09-15T12:21:22.843Z,50.72
2022-09-15T12:24:01.618Z,50.29
2022-09-15T12:26:28.437Z,49.68
2022-09-15T12:29:20.775Z,50.17
2022-09-15T12:31:47.317Z,50.58
2022-09-15T12:34:25.930Z,50.49
2022-09-15T12:36:53.377Z,49.71
2022-09-15T12:39:30.180Z,48.83
2022-09-15T12:42:16.851Z,48.09
2022-09-15T12:44:54.180Z,48.20
2022-09-15T12:47:23.673Z,48.57
2022-09-15T12:49:51.108Z,48.57
2022-09-15T12:52:20.013Z,48.31
2022-09-15T12:54:50.671Z,48.54
2022-09-15T12:57:23.178Z,47.66
2022-09-15T12:59:49.517Z,46.71
2022-09-15T13:02:34.796Z,46.53
2022-09-15T13:05:01.270Z,46.73
2022-09-15T13:07:31.894Z,46.25
2022-09-15T13:10:07.547Z,46.88
2022-09-15T13:12:36.416Z,46.04
2022-09-15T13:15:06.288Z,46.12
2022-09-15T13:17:33.275Z,45.66
2022-09-15T13:20:07.183Z,45.80
2022-09-15T13:22:39.939Z,45.24
2022-09-15T13:25:09.372Z,45.09
2022-09-15T13:27:37.927Z,44.96
2022-09-15T13:30:22.769Z,45.37
2022-09-15T13:32:52.121Z,44.95
2022-09-15T13:35:37.435Z,43.90
2022-09-15T13:38:23.733Z,43.79
2022-09-15T13:41:10.346Z,43.16
2022-09-15T13:43:40.791Z,44.17
2022-09-15T13:46:20.071Z,44.31
2022-09-15T13:48:46.530Z,43.88
2022-09-15T13:51:23.716Z,43.82
2022-09-15T13:53:53.186Z,43.38
2022-09-15T13:56:26.364Z,43.41
2022-09-15T13:58:56.324Z,43.32
2022-09-15T14:01:26.341Z,43.54
2022-09-15T14:04:01.945Z,43.38
2022-09-15T14:06:30.447Z,43.44
2022-09-15T14:09:00.121Z,42.72
2022-09-15T14:11:29.388Z,42.24
2022-09-15T14:13:57.233Z,42.56
2022-09-15T14:16:28.120Z,41.64
2022-09-15T14:18:55.653Z,40.92
2022-09-15T14:21:23.255Z,42.15
2022-09-15T14:23:50.551Z,42.23
2022-09-15T14:26:18.555Z,42.47
2022-09-15T14:28:52.250Z,42.35
2022-09-15T14:31:26.850Z,41.88
2022-09-15T14:33:53.415Z,42.40
2022-09-15T14:36:25.473Z,42.00
2022-09-15T14:39:04.062Z,41.98
2022-09-15T14:41:33.639Z,41.83
2022-09-15T14:43:59.991Z,40.84
2022-09-15T14:46:35.274Z,42.05
2022-09-15T14:49:08.584Z,41.36
2022-09-15T14:51:35.281Z,41.55
2022-09-15T14:54:03.089Z,42.30
2022-09-15T14:56:36.825Z,41.46
2022-09-15T14:59:08.012Z,41.83
2022-09-15T15:01:36.297Z,41.98
2022-09-15T15:04:17.747Z,41.62
2022-09-15T15:07:02.546Z,41.90
2022-09-15T15:09:33.954Z,41.15
2022-09-15T15:12:06.042Z,41.95
2022-09-15T15:14:32.653Z,41.66
2022-09-15T15:17:00.591Z,42.33
2022-09-15T15:19:53.456Z,41.53
2022-09-15T15:22:20.749Z,41.61
2022-09-15T15:24:48.367Z,39.91
2022-09-15T15:27:32.861Z,41.12
2022-09-15T15:30:19.458Z,40.61
2022-09-15T15:32:45.925Z,40.91
2022-09-15T15:35:19.240Z,41.29
2022-09-15T15:37:46.370Z,42.02
2022-09-15T15:40:16.736Z,41.25
2022-09-15T15:42:57.710Z,41.55
2022-09-15T15:45:27.540Z,41.28
2022-09-15T15:47:53.916Z,41.15
2022-09-15T15:50:22.113Z,41.03
2022-09-15T15:52:49.430Z,41.38
2022-09-15T15:55:17.346Z,41.22
2022-09-15T15:57:44.603Z,41.51
2022-09-15T16:00:20.892Z,41.46
2022-09-15T16:02:48.222Z,41.86
2022-09-15T16:05:14.648Z,42.72
2022-09-15T16:07:42.370Z,41.85
2022-09-15T16:10:14.198Z,42.03
2022-09-15T16:12:40.547Z,42.10
2022-09-15T16:15:11.115Z,42.14
2022-09-15T16:17:37.491Z,42.23
2022-09-15T16:20:03.990Z,42.33
2022-09-15T16:22:30.359Z,42.30
2022-09-15T16:24:56.689Z,42.67
2022-09-15T16:27:23.058Z,43.08
2022-09-15T16:29:49.366Z,42.63
2022-09-15T16:32:19.950Z,42.76
2022-09-15T16:34:46.366Z,42.82
2022-09-15T16:37:12.677Z,42.82
2022-09-15T16:39:39.055Z,43.05
2022-09-15T16:42:05.486Z,42.43
2022-09-15T16:44:31.837Z,42.39
2022-09-15T16:46:58.222Z,41.71
2022-09-15T16:49:24.618Z,42.62
2022-09-15T16:51:50.964Z,42.79
2022-09-15T16:54:18.488Z,41.49
2022-09-15T16:56:45.251Z,41.97
2022-09-15T16:59:11.705Z,40.98
2022-09-15T17:01:38.424Z,41.79
2022-09-15T17:04:11.293Z,41.84
2022-09-15T17:06:37.675Z,41.29
2022-09-15T17:09:04.062Z,41.05
2022-09-15T17:11:30.489Z,41.30
2022-09-15T17:13:56.821Z,41.84
2022-09-15T17:16:23.240Z,41.66
2022-09-15T17:18:49.605Z,42.66
2022-09-15T17:21:16.923Z,41.83
2022-09-15T17:23:45.366Z,42.19
2022-09-15T17:26:17.141Z,41.12
2022-09-15T17:28:43.530Z,42.09
2022-09-15T17:31:17.755Z,41.91
2022-09-15T17:33:44.841Z,41.75
2022-09-15T17:36:11.346Z,42.57
2022-09-15T17:38:37.714Z,42.53
2022-09-15T17:41:04.087Z,42.15
2022-09-15T17:43:30.984Z,42.25
2022-09-15T17:45:58.004Z,42.53
2022-09-15T17:48:24.818Z,42.70
2022-09-15T17:50:51.517Z,41.97
2022-09-15T17:53:18.819Z,42.67
2022-09-15T17:55:45.175Z,41.23
2022-09-15T17:58:11.510Z,42.23
2022-09-15T18:00:38.831Z,42.62
2022-09-15T18:03:10.862Z,43.11
2022-09-15T18:05:37.461Z,43.34
2022-09-15T18:08:04.684Z,43.18
2022-09-15T18:10:32.906Z,42.45
2022-09-15T18:12:59.620Z,43.36
2022-09-15T18:15:27.026Z,43.77
2022-09-15T18:17:55.094Z,43.36
2022-09-15T18:20:22.750Z,43.55
2022-09-15T18:22:49.505Z,43.58
2022-09-15T18:25:17.810Z,43.66
2022-09-15T18:27:44.379Z,44.19
2022-09-15T18:30:11.344Z,43.90
2022-09-15T18:32:37.676Z,43.26
2022-09-15T18:35:04.109Z,43.72
2022-09-15T18:37:30.504Z,44.40
2022-09-15T18:39:56.942Z,43.70
2022-09-15T18:42:23.615Z,44.16
2022-09-15T18:44:51.602Z,43.58
2022-09-15T18:47:17.907Z,44.48
2022-09-15T18:49:44.269Z,44.10
2022-09-15T18:52:11.285Z,44.69
2022-09-15T18:54:37.644Z,44.07
2022-09-15T18:57:03.983Z,44.19
2022-09-15T18:59:30.346Z,44.49
2022-09-15T19:01:56.753Z,44.72
2022-09-15T19:04:23.256Z,43.89
2022-09-15T19:06:49.618Z,44.67
2022-09-15T19:09:15.982Z,44.81
2022-09-15T19:11:42.310Z,44.54
2022-09-15T19:14:08.695Z,44.42
2022-09-15T19:16:56.606Z,44.93
2022-09-15T19:19:21.578Z,44.97
2022-09-15T19:21:47.987Z,44.39
2022-09-15T19:24:14.335Z,44.47
2022-09-15T19:26:40.696Z,44.61
2022-09-15T19:29:07.049Z,44.33
2022-09-15T19:31:33.412Z,44.44
2022-09-15T19:33:59.779Z,44.67
2022-09-15T19:36:28.715Z,45.07
2022-09-15T19:38:55.924Z,44.22
2022-09-15T19:41:22.282Z,44.77
2022-09-15T19:43:48.599Z,44.29
2022-09-15T19:46:16.362Z,44.92
2022-09-15T19:48:46.535Z,44.74
2022-09-15T19:51:16.928Z,45.06
2022-09-15T19:53:43.729Z,44.68
2022-09-15T19:56:13.815Z,45.32
2022-09-15T19:58:40.300Z,45.23
2022-09-15T20:01:06.753Z,45.19
2022-09-15T20:03:33.154Z,45.44
2022-09-15T20:05:59.471Z,44.78
2022-09-15T20:08:25.862Z,45.32
2022-09-15T20:10:52.409Z,45.36
2022-09-15T20:13:18.771Z,44.91
2022-09-15T20:15:54.873Z,44.97
2022-09-15T20:18:21.233Z,45.09
2022-09-15T20:20:47.546Z,45.63
2022-09-15T20:23:13.936Z,45.54
2022-09-15T20:25:40.321Z,45.39
2022-09-15T20:28:06.697Z,45.74
2022-09-15T20:30:33.136Z,45.38
2022-09-15T20:32:59.548Z,46.02
2022-09-15T20:35:25.896Z,46.33
2022-09-15T20:37:52.285Z,45.96
2022-09-15T20:40:18.668Z,46.52
2022-09-15T20:42:45.052Z,46.68
2022-09-15T20:45:11.408Z,46.39
2022-09-15T20:47:37.789Z,47.19
2022-09-15T20:50:04.303Z,47.16
2022-09-15T20:52:33.643Z,46.84
2022-09-15T20:55:04.063Z,47.75
2022-09-15T20:57:30.385Z,47.78
2022-09-15T20:59:56.782Z,47.67
2022-09-15T21:02:23.145Z,47.50
2022-09-15T21:04:49.524Z,47.56
2022-09-15T21:07:15.860Z,48.13
2022-09-15T21:09:42.249Z,47.60
2022-09-15T21:12:08.584Z,47.30
2022-09-15T21:14:34.966Z,47.63
2022-09-15T21:17:01.303Z,47.72
2022-09-15T21:19:27.685Z,47.65
2022-09-15T21:21:54.043Z,47.46
2022-09-15T21:24:20.391Z,47.41
2022-09-15T21:26:46.733Z,47.42
2022-09-15T21:29:13.174Z,47.21
2022-09-15T21:31:39.533Z,47.60
2022-09-15T21:34:05.873Z,47.54
2022-09-15T21:36:32.198Z,47.63
2022-09-15T21:38:59.300Z,48.13
2022-09-15T21:41:26.665Z,48.14
2022-09-15T21:43:53.933Z,47.77
2022-09-15T21:46:22.243Z,48.20
2022-09-15T21:48:49.056Z,48.68
2022-09-15T21:51:18.758Z,48.31
2022-09-15T21:53:50.619Z,47.35
2022-09-15T21:56:16.925Z,47.75
2022-09-15T21:58:43.558Z,47.43
2022-09-15T22:01:19.205Z,47.84
2022-09-15T22:03:49.711Z,47.59
2022-09-15T22:06:16.241Z,47.37
2022-09-15T22:08:42.633Z,48.12
2022-09-15T22:11:09.881Z,47.80
2022-09-15T22:13:37.727Z,47.49
2022-09-15T22:16:05.303Z,47.95
2022-09-15T22:18:31.880Z,48.01
2022-09-15T22:21:12.162Z,47.73
2022-09-15T22:23:39.037Z,47.76
2022-09-15T22:26:06.792Z,47.99
2022-09-15T22:28:33.206Z,48.44
2022-09-15T22:31:04.222Z,48.22
2022-09-15T22:33:30.680Z,48.16
2022-09-15T22:35:57.054Z,48.17
2022-09-15T22:38:24.157Z,48.25
2022-09-15T22:40:50.870Z,48.89
2022-09-15T22:43:17.296Z,48.27
2022-09-15T22:45:43.807Z,48.25
2022-09-15T22:48:10.258Z,48.45
2022-09-15T22:50:36.629Z,48.72
2022-09-15T22:53:02.996Z,49.38
2022-09-15T22:55:32.428Z,48.59
2022-09-15T22:57:58.865Z,49.16
2022-09-15T23:00:25.224Z,48.94
2022-09-15T23:02:51.625Z,49.72
2022-09-15T23:05:18.009Z,49.13
2022-09-15T23:07:44.379Z,49.54
2022-09-15T23:10:10.698Z,49.63
2022-09-15T23:12:37.059Z,49.45
2022-09-15T23:15:03.467Z,49.60
2022-09-15T23:17:33.576Z,50.23
2022-09-15T23:20:00.330Z,50.33
2022-09-15T23:22:26.685Z,50.62
2022-09-15T23:24:53.063Z,50.63
2022-09-15T23:27:19.403Z,49.93
2022-09-15T23:29:45.759Z,49.91
2022-09-15T23:32:12.111Z,50.39
2022-09-15T23:34:38.703Z,51.08
2022-09-15T23:37:05.055Z,50.42
2022-09-15T23:39:31.399Z,50.43
2022-09-15T23:41:57.758Z,50.44
2022-09-15T23:44:24.167Z,51.12
2022-09-15T23:46:50.522Z,51.61
2022-09-15T23:49:18.839Z,50.78
2022-09-15T23:51:45.357Z,51.16
2022-09-15T23:54:11.747Z,51.31
2022-09-15T23:56:38.123Z,51.18
2022-09-15T23:59:04.474Z,51.28
